Time;durP1;ratioP1;P1;durP2;ratioP2;P2;SDS_P1;SDS_P2;PMS_P1;PMS_P2;Temp;Humidity;BMP_temperature;BMP_pressure;BME280_temperature;BME280_humidity;BME280_pressure;Samples;Min_cycle;Max_cycle;Signal;HPM_P1;HPM_P2
2021/11/03 00:11:42;;;;;;;;;;;10.40;96.50;;;;;;10;72021830;72024957;-73
2021/11/03 00:23:44;;;;;;;;;;;10.40;96.50;;;;;;10;72021854;72023861;-73
2021/11/03 00:35:46;;;;;;;;;;;10.50;96.50;;;;;;10;72022616;72025944;-73
2021/11/03 00:47:48;;;;;;;;;;;10.20;96.60;;;;;;10;72023220;72027756;-73
2021/11/03 00:59:50;;;;;;;;;;;10.20;96.50;;;;;;10;72021468;72025420;-73
2021/11/03 01:11:52;;;;;;;;;;;9.90;96.20;;;;;;10;72023188;72025757;-74
2021/11/03 01:23:54;;;;;;;;;;;9.60;96.20;;;;;;10;72023834;72025572;-73
2021/11/03 01:35:56;;;;;;;;;;;9.40;96.40;;;;;;10;72021646;72024349;-73
2021/11/03 01:48:00;;;;;;;;;;;9.20;96.50;;;;;;10;72021455;72024023;-73
2021/11/03 02:00:06;;;;;;;;;;;9.10;96.40;;;;;;10;72021823;72023407;-73
2021/11/03 02:12:20;;;;;;;;;;;9.40;96.50;;;;;;10;72021804;72024058;-73
2021/11/03 02:24:27;;;;;;;;;;;9.70;96.60;;;;;;10;72021183;72024657;-73
2021/11/03 02:36:29;;;;;;;;;;;9.70;96.70;;;;;;10;72021865;72024449;-73
2021/11/03 02:48:35;;;;;;;;;;;9.50;96.60;;;;;;10;72022255;72024902;-73
2021/11/03 03:00:38;;;;;;;;;;;9.30;96.60;;;;;;10;72021963;72027250;-73
2021/11/03 03:12:51;;;;;;;;;;;9.10;96.60;;;;;;10;72023087;72025263;-73
2021/11/03 03:24:56;;;;;;;;;;;9.10;96.70;;;;;;10;72022542;72025544;-74
2021/11/03 03:37:00;;;;;;;;;;;9.00;96.70;;;;;;10;72021309;72025039;-73
2021/11/03 03:49:22;;;;;;;;;;;;;;;;;;10;72021550;72023208;-73
2021/11/03 04:01:34;;;;;;;;;;;8.40;96.60;;;;;;10;72020457;72023347;-74
2021/11/03 04:13:40;;;;;;;;;;;8.30;96.70;;;;;;10;72021797;72024628;-74
2021/11/03 04:25:46;;;;;;;;;;;8.10;96.70;;;;;;10;72022094;72024851;-72
2021/11/03 04:37:49;;;;;;;;;;;8.10;96.60;;;;;;10;72020915;72023884;-72
2021/11/03 04:50:01;;;;;;;;;;;8.00;96.70;;;;;;10;72021359;72024524;-73
2021/11/03 05:02:03;;;;;;;;;;;8.00;96.70;;;;;;10;72021503;72023681;-74
2021/11/03 05:14:06;;;;;;;;;;;7.90;96.70;;;;;;10;72021997;72024136;-74
2021/11/03 05:26:09;;;;;;;;;;;7.90;96.70;;;;;;10;72021432;72025108;-75
2021/11/03 05:38:12;;;;;;;;;;;7.90;96.80;;;;;;10;72021305;72024697;-74
2021/11/03 05:50:16;;;;;;;;;;;8.00;96.70;;;;;;10;72023720;72025792;-73
2021/11/03 06:02:18;;;;;;;;;;;8.00;96.70;;;;;;10;72022542;72026618;-75
2021/11/03 06:14:21;;;;;;;;;;;8.00;96.60;;;;;;10;72021589;72024597;-75
2021/11/03 06:26:24;;;;;;;;;;;8.00;96.60;;;;;;10;72021313;72023466;-76
2021/11/03 06:38:28;;;;;;;;;;;7.90;96.50;;;;;;10;72022152;72027344;-83
2021/11/03 06:50:33;;;;;;;;;;;7.90;96.50;;;;;;10;72023157;72026928;-65
2021/11/03 07:02:35;;;;;;;;;;;8.00;96.50;;;;;;10;72021982;72025780;-76
2021/11/03 07:14:37;;;;;;;;;;;8.00;96.60;;;;;;10;72023550;72028978;-81
2021/11/03 07:26:41;;;;;;;;;;;8.20;96.60;;;;;;10;72023073;72026916;-77
2021/11/03 07:39:56;;;;;;;;;;;8.40;96.70;;;;;;10;72023611;72027197;-70
2021/11/03 07:51:58;;;;;;;;;;;8.80;96.80;;;;;;10;72022850;72026939;-72
2021/11/03 08:04:03;;;;;;;;;;;8.90;96.90;;;;;;10;72022624;72027494;-76
2021/11/03 08:16:08;;;;;;;;;;;9.30;97.00;;;;;;10;72021884;72028329;-67
2021/11/03 08:28:11;;;;;;;;;;;9.50;97.10;;;;;;10;72022799;72027595;-72
2021/11/03 08:40:15;;;;;;;;;;;9.80;97.10;;;;;;10;72022413;72027391;-69
2021/11/03 08:52:17;;;;;;;;;;;10.50;96.90;;;;;;10;72022467;72025075;-69
2021/11/03 09:04:20;;;;;;;;;;;10.60;97.00;;;;;;10;72022498;72025728;-66
2021/11/03 09:16:22;;;;;;;;;;;10.80;97.00;;;;;;10;72022601;72025165;-65
2021/11/03 09:28:26;;;;;;;;;;;11.40;97.10;;;;;;10;72023035;72024828;-69
2021/11/03 09:40:32;;;;;;;;;;;13.60;97.30;;;;;;10;72023481;72025502;-65
2021/11/03 09:52:38;;;;;;;;;;;14.40;97.20;;;;;;10;72022390;72026372;-64
2021/11/03 10:05:05;;;;;;;;;;;13.40;97.20;;;;;;10;72022774;72026357;-67
2021/11/03 10:17:18;;;;;;;;;;;18.70;97.10;;;;;;10;72021450;72027677;-65
2021/11/03 10:29:21;;;;;;;;;;;24.70;95.80;;;;;;10;72022782;72026623;-65
2021/11/03 10:41:27;;;;;;;;;;;27.70;94.70;;;;;;10;72023511;72025305;-65
2021/11/03 10:53:31;;;;;;;;;;;28.70;94.60;;;;;;10;72022506;72027128;-66
2021/11/03 11:05:13;;;;;;;;;;;30.90;94.60;;;;;;617654;28;72025708;-65
2021/11/03 11:17:19;;;;;;;;;;;31.60;94.50;;;;;;176426;28;72026621;-64
2021/11/03 11:29:30;;;;;;;;;;;32.60;94.60;;;;;;10;72022951;72024771;-71
2021/11/03 11:40:50;;;;;;;;;;;31.90;96.20;;;;;;175065;28;72025540;-68
2021/11/03 11:53:03;;;;;;;;;;;29.20;96.70;;;;;;174278;28;72044631;-65
2021/11/03 12:05:14;;;;;;;;;;;31.50;96.80;;;;;;174231;28;72026510;-76
2021/11/03 12:17:56;;;;;;;;;;;27.20;96.30;;;;;;10;72022637;72026829;-69
2021/11/03 12:30:04;;;;;;;;;;;29.10;94.90;;;;;;10;72023801;72026604;-68
2021/11/03 12:42:10;;;;;;;;;;;27.80;94.30;;;;;;10;72022366;72027488;-76
2021/11/03 12:54:14;;;;;;;;;;;30.10;93.20;;;;;;10;72022947;72025607;-64
2021/11/03 13:06:17;;;;;;;;;;;23.40;88.30;;;;;;10;72021077;72025692;-66
2021/11/03 13:18:25;;;;;;;;;;;23.00;88.70;;;;;;10;72023272;72026295;-71
2021/11/03 13:30:29;;;;;;;;;;;17.80;72.60;;;;;;10;72022982;72026171;-73
2021/11/03 13:40:50;;;;;;;;;;;16.90;80.90;;;;;;11832790;28;72025598;-72
2021/11/03 13:50:52;;;;;;;;;;;18.50;81.40;;;;;;21202417;27;20353;-75
2021/11/03 14:01:16;;;;;;;;;;;21.70;78.40;;;;;;21204265;28;20354;-67
2021/11/03 14:11:19;;;;;;;;;;;26.50;67.80;;;;;;21199788;28;19956;-73
2021/11/03 14:21:23;;;;;;;;;;;27.10;70.70;;;;;;21199059;28;19962;-69
2021/11/03 14:31:26;;;;;;;;;;;30.20;53.10;;;;;;21196607;27;19952;-71
2021/11/03 14:41:28;;;;;;;;;;;31.40;43.10;;;;;;21200126;28;19974;-75
2021/11/03 14:51:32;;;;;;;;;;;33.40;54.20;;;;;;21198179;28;20057;-68
2021/11/03 15:01:35;;;;;;;;;;;23.90;35.00;;;;;;21198896;28;19944;-66
2021/11/03 15:11:39;;;;;;;;;;;19.20;49.60;;;;;;21197733;28;20006;-66
2021/11/03 15:21:42;;;;;;;;;;;17.40;59.40;;;;;;21196091;28;21403;-65
2021/11/03 15:31:44;;;;;;;;;;;16.90;71.20;;;;;;21205813;28;20406;-67
2021/11/03 15:41:57;;;;;;;;;;;16.40;66.50;;;;;;21206291;27;20793;-70
2021/11/03 15:52:00;;;;;;;;;;;16.70;63.30;;;;;;21199795;28;19952;-71
2021/11/03 16:02:03;;;;;;;;;;;16.70;68.50;;;;;;21200600;28;20062;-71
2021/11/03 16:12:06;;;;;;;;;;;16.30;70.60;;;;;;21205023;27;20298;-67
2021/11/03 16:22:21;;;;;;;;;;;15.90;71.10;;;;;;21204880;27;19961;-72
2021/11/03 16:33:54;;;;;;;;;;;15.70;73.90;;;;;;11663949;28;72022709;-74
2021/11/03 16:45:58;;;;;;;;;;;15.20;76.10;;;;;;10;72021756;72024040;-72
2021/11/03 16:58:07;;;;;;;;;;;15.00;77.50;;;;;;10;72021703;72023158;-75
2021/11/03 17:10:12;;;;;;;;;;;14.80;77.40;;;;;;10;72022019;72024294;-74
2021/11/03 17:22:17;;;;;;;;;;;14.60;77.30;;;;;;10;72021854;72024605;-75
2021/11/03 17:34:19;;;;;;;;;;;14.00;77.40;;;;;;10;72022370;72024147;-75
2021/11/03 17:46:22;;;;;;;;;;;13.40;64.00;;;;;;10;72021416;72025072;-76
2021/11/03 17:58:25;;;;;;;;;;;12.90;78.10;;;;;;10;72021502;72023642;-76
2021/11/03 18:10:27;;;;;;;;;;;12.70;77.90;;;;;;10;72022480;72024266;-77
2021/11/03 18:22:29;;;;;;;;;;;12.40;70.20;;;;;;10;72021561;72023690;-76
2021/11/03 18:34:33;;;;;;;;;;;12.00;69.10;;;;;;10;72020768;72024541;-77
2021/11/03 18:46:38;;;;;;;;;;;11.90;69.30;;;;;;10;72021547;72024118;-73
2021/11/03 18:58:40;;;;;;;;;;;11.70;72.40;;;;;;10;72021230;72023754;-77
2021/11/03 19:10:42;;;;;;;;;;;11.80;77.10;;;;;;10;72022303;72025562;-75
2021/11/03 19:22:50;;;;;;;;;;;11.70;76.00;;;;;;10;72021884;72024199;-76
2021/11/03 19:34:59;;;;;;;;;;;11.80;77.50;;;;;;10;72022342;72025478;-76
2021/11/03 19:47:03;;;;;;;;;;;11.70;78.80;;;;;;10;72023133;72024943;-70
2021/11/03 19:59:06;;;;;;;;;;;11.50;80.50;;;;;;10;72023854;72026581;-69
2021/11/03 20:11:09;;;;;;;;;;;11.40;82.50;;;;;;10;72022564;72025750;-71
2021/11/03 20:23:12;;;;;;;;;;;11.20;82.20;;;;;;10;72022772;72026260;-70
2021/11/03 20:35:22;;;;;;;;;;;11.20;82.80;;;;;;10;72023708;72026430;-71
2021/11/03 20:47:25;;;;;;;;;;;11.10;81.00;;;;;;10;72022838;72027106;-72
2021/11/03 20:59:27;;;;;;;;;;;10.80;81.10;;;;;;10;72023727;72026637;-72
2021/11/03 21:11:29;;;;;;;;;;;10.70;80.30;;;;;;10;72023107;72025370;-72
2021/11/03 21:23:32;;;;;;;;;;;10.70;81.20;;;;;;10;72023164;72026841;-72
2021/11/03 21:35:35;;;;;;;;;;;10.80;83.50;;;;;;10;71942094;72026560;-71
2021/11/03 21:47:41;;;;;;;;;;;10.40;82.30;;;;;;10;72023072;72027547;-71
2021/11/03 21:59:44;;;;;;;;;;;10.30;83.20;;;;;;10;72023493;72025622;-71
2021/11/03 22:11:27;;;;;;;;;;;10.50;84.00;;;;;;348691;28;72024566;-73
2021/11/03 22:23:29;;;;;;;;;;;10.70;83.70;;;;;;10;72021846;72024451;-72
2021/11/03 22:35:31;;;;;;;;;;;10.50;83.30;;;;;;10;72022349;72023963;-72
2021/11/03 22:47:34;;;;;;;;;;;10.20;83.70;;;;;;10;72021671;72023601;-72
2021/11/03 22:59:36;;;;;;;;;;;9.90;84.90;;;;;;10;72022272;72024683;-73
2021/11/03 23:11:38;;;;;;;;;;;9.80;85.00;;;;;;10;72020993;72023608;-73
2021/11/03 23:23:41;;;;;;;;;;;10.00;85.90;;;;;;10;72021923;72023425;-73
2021/11/03 23:35:43;;;;;;;;;;;9.90;85.40;;;;;;10;72021333;72024076;-73
2021/11/03 23:47:45;;;;;;;;;;;9.80;84.50;;;;;;10;72021046;72024191;-73
2021/11/03 23:59:48;;;;;;;;;;;9.70;80.90;;;;;;10;72020757;72023755;-72
